Time;durP1;ratioP1;P1;durP2;ratioP2;P2;SDS_P1;SDS_P2;PMS_P1;PMS_P2;Temp;Humidity;BMP_temperature;BMP_pressure;BME280_temperature;BME280_humidity;BME280_pressure;Samples;Min_cycle;Max_cycle;Signal;HPM_P1;HPM_P2
2022/12/01 00:00:52;;;;;;;61.53;19.93;;;;;;;2.95;100.00;102105.69;6100836;28;20028;-70
2022/12/01 00:03:48;;;;;;;62.58;20.13;;;;;;;2.95;100.00;102096.06;6100113;28;20044;-72
2022/12/01 00:06:43;;;;;;;68.00;23.38;;;;;;;3.01;100.00;102113.31;6100701;28;20028;-72
2022/12/01 00:12:57;;;;;;;59.15;20.25;;;;;;;2.92;100.00;102105.81;6100090;28;20029;-72
2022/12/01 00:15:52;;;;;;;58.35;23.35;;;;;;;2.89;100.00;102095.47;6100567;28;20107;-70
2022/12/01 00:18:51;;;;;;;62.90;23.23;;;;;;;2.97;100.00;102111.72;6100060;28;20398;-72
2022/12/01 00:21:47;;;;;;;63.00;21.45;;;;;;;2.90;100.00;102099.81;6100147;28;20028;-72
2022/12/01 00:24:42;;;;;;;61.63;20.60;;;;;;;2.90;100.00;102102.41;6099058;28;20496;-70
2022/12/01 00:27:37;;;;;;;68.97;23.87;;;;;;;2.96;100.00;102118.72;6100119;28;20056;-70
2022/12/01 00:30:33;;;;;;;66.28;22.63;;;;;;;2.96;100.00;102118.72;6100264;28;20041;-71
2022/12/01 00:33:28;;;;;;;65.20;20.40;;;;;;;3.01;100.00;102126.41;6100544;28;20088;-72
2022/12/01 00:36:23;;;;;;;53.27;19.57;;;;;;;3.01;100.00;102115.94;6099972;28;20477;-71
2022/12/01 00:39:19;;;;;;;59.75;20.35;;;;;;;3.11;100.00;102125.09;6099672;28;20039;-71
2022/12/01 00:42:14;;;;;;;58.10;21.70;;;;;;;3.09;100.00;102124.31;6098096;28;20043;-71
2022/12/01 00:45:09;;;;;;;57.00;20.70;;;;;;;3.05;100.00;102101.78;6099820;28;20267;-70
2022/12/01 00:48:05;;;;;;;65.90;22.33;;;;;;;3.04;100.00;102115.81;6099639;28;20033;-71
2022/12/01 00:51:00;;;;;;;67.13;22.87;;;;;;;2.98;100.00;102121.28;6099845;28;20021;-71
2022/12/01 00:53:56;;;;;;;69.10;21.73;;;;;;;2.95;100.00;102122.28;6098811;28;20090;-72
2022/12/01 00:56:51;;;;;;;70.38;22.23;;;;;;;3.00;100.00;102124.69;6099515;28;20036;-71
2022/12/01 00:59:46;;;;;;;66.03;20.57;;;;;;;3.00;100.00;102108.97;6098993;28;20044;-72
2022/12/01 01:02:42;;;;;;;75.00;25.57;;;;;;;3.03;100.00;102128.97;6098652;28;20436;-70
2022/12/01 01:05:38;;;;;;;67.68;22.58;;;;;;;2.97;100.00;102119.56;6101768;28;20124;-72
2022/12/01 01:08:34;;;;;;;69.15;22.40;;;;;;;2.97;100.00;102128.28;6099151;28;20041;-71
2022/12/01 01:11:29;;;;;;;71.38;21.33;;;;;;;2.95;100.00;102131.91;6099349;28;20067;-70
2022/12/01 01:14:24;;;;;;;70.73;23.93;;;;;;;2.95;100.00;102145.84;6098323;28;20075;-71
2022/12/01 01:17:20;;;;;;;72.07;23.33;;;;;;;2.77;100.00;102143.94;6098570;28;20112;-70
2022/12/01 01:20:15;;;;;;;81.33;26.83;;;;;;;2.68;100.00;102144.34;6098873;28;20036;-70
2022/12/01 01:23:10;;;;;;;79.67;25.00;;;;;;;2.65;100.00;102156.69;6097899;28;20037;-72
2022/12/01 01:26:10;;;;;;;80.30;26.17;;;;;;;2.64;100.00;102154.97;6098666;28;20040;-71
2022/12/01 01:29:06;;;;;;;73.63;24.08;;;;;;;2.54;100.00;102143.16;6098776;28;20119;-72
2022/12/01 01:32:03;;;;;;;83.90;27.90;;;;;;;2.59;100.00;102165.63;6097922;28;20396;-72
2022/12/01 01:34:58;;;;;;;86.80;29.25;;;;;;;2.43;100.00;102146.19;6100057;28;20408;-71
2022/12/01 01:37:53;;;;;;;82.00;26.27;;;;;;;2.44;100.00;102161.00;6098155;28;20029;-72
2022/12/01 01:40:48;;;;;;;85.53;26.00;;;;;;;2.36;100.00;102158.66;6097420;28;20032;-73
2022/12/01 01:43:54;;;;;;;88.13;28.40;;;;;;;2.37;100.00;102163.00;6097553;28;20040;-71
2022/12/01 01:46:49;;;;;;;88.07;29.42;;;;;;;2.27;100.00;102143.31;6098744;28;20465;-72
2022/12/01 01:49:45;;;;;;;94.70;28.02;;;;;;;2.21;100.00;102154.00;6097204;28;20029;-70
2022/12/01 01:52:45;;;;;;;88.95;26.60;;;;;;;2.26;100.00;102144.22;6095386;28;20052;-71
2022/12/01 01:55:40;;;;;;;72.18;23.00;;;;;;;2.22;100.00;102147.88;6097654;28;20123;-73
2022/12/01 01:58:36;;;;;;;84.87;24.93;;;;;;;2.26;100.00;102153.84;6096360;28;20217;-72
2022/12/01 02:01:31;;;;;;;82.90;25.33;;;;;;;2.27;100.00;102153.78;6096991;28;20086;-70
2022/12/01 02:04:28;;;;;;;94.82;26.90;;;;;;;2.15;100.00;102142.91;6095545;28;20090;-70
2022/12/01 02:07:24;;;;;;;92.13;29.30;;;;;;;2.13;100.00;102160.44;6096909;28;20048;-72
2022/12/01 02:10:22;;;;;;;86.55;24.65;;;;;;;2.07;100.00;102150.19;6098042;28;20396;-71
2022/12/01 02:13:23;;;;;;;78.28;23.30;;;;;;;2.06;100.00;102154.59;6096514;28;20035;-70
2022/12/01 02:16:26;;;;;;;77.88;23.35;;;;;;;2.02;100.00;102159.97;6097720;28;20029;-71
2022/12/01 02:19:42;;;;;;;70.45;22.58;;;;;;;1.98;100.00;102167.09;6096402;28;20171;-72
2022/12/01 02:22:55;;;;;;;77.10;23.25;;;;;;;1.95;100.00;102161.97;6085722;28;20040;-73
2022/12/01 02:26:02;;;;;;;90.18;23.45;;;;;;;1.89;100.00;102161.34;6097454;28;20036;-73
2022/12/01 02:29:08;;;;;;;84.22;24.85;;;;;;;1.77;100.00;102152.16;6096299;28;20029;-70
2022/12/01 02:32:31;;;;;;;86.50;28.27;;;;;;;1.79;100.00;102179.13;6096665;28;20555;-71
2022/12/01 02:35:47;;;;;;;77.35;22.58;;;;;;;1.67;100.00;102166.47;6085420;28;20040;-71
2022/12/01 02:38:51;;;;;;;74.10;22.17;;;;;;;1.66;100.00;102177.81;6101049;28;20064;-72
2022/12/01 02:41:54;;;;;;;86.05;21.25;;;;;;;1.60;100.00;102170.22;6087256;28;20061;-71
2022/12/01 02:44:49;;;;;;;76.60;24.05;;;;;;;1.60;100.00;102162.38;6095869;28;20390;-71
2022/12/01 02:47:45;;;;;;;78.68;20.90;;;;;;;1.49;100.00;102156.66;6095746;28;20071;-71
2022/12/01 02:50:41;;;;;;;88.78;23.25;;;;;;;1.46;100.00;102151.53;6095887;28;20539;-72
2022/12/01 02:53:36;;;;;;;78.80;21.75;;;;;;;1.52;100.00;102165.22;6094919;28;20068;-72
2022/12/01 02:56:32;;;;;;;88.85;23.23;;;;;;;1.53;100.00;102171.31;6095456;28;20033;-70
2022/12/01 02:59:27;;;;;;;92.77;22.80;;;;;;;1.41;100.00;102154.31;6097137;28;20040;-71
2022/12/01 03:02:51;;;;;;;85.50;21.23;;;;;;;1.51;100.00;102168.78;6096680;28;20036;-72
2022/12/01 03:06:20;;;;;;;85.78;24.83;;;;;;;1.56;100.00;102176.44;6091129;28;20041;-71
2022/12/01 03:09:27;;;;;;;73.28;22.35;;;;;;;1.44;100.00;102179.50;6072778;28;20083;-72
2022/12/01 03:12:33;;;;;;;88.22;22.63;;;;;;;1.44;100.00;102180.31;6100934;28;20033;-70
2022/12/01 03:15:49;;;;;;;63.47;18.25;;;;;;;1.44;100.00;102174.28;6101559;28;20083;-72
2022/12/01 03:18:55;;;;;;;71.55;19.48;;;;;;;1.48;100.00;102175.84;6101823;28;20041;-71
2022/12/01 03:22:08;;;;;;;78.32;22.75;;;;;;;1.48;100.00;102179.31;6099577;28;20405;-71
2022/12/01 03:25:05;;;;;;;84.78;22.02;;;;;;;1.39;100.00;102150.03;6100648;28;20534;-71
2022/12/01 03:28:04;;;;;;;78.30;21.02;;;;;;;1.53;100.00;102166.09;6100770;28;20028;-72
2022/12/01 03:31:08;;;;;;;83.95;21.52;;;;;;;1.45;100.00;102158.53;6100608;28;20045;-72
2022/12/01 03:34:08;;;;;;;73.05;19.35;;;;;;;1.44;100.00;102158.59;6100642;28;20040;-72
2022/12/01 03:37:09;;;;;;;73.13;21.63;;;;;;;1.48;100.00;102162.78;6101226;28;20033;-71
2022/12/01 03:40:07;;;;;;;88.55;22.42;;;;;;;1.44;100.00;102169.03;6083541;28;20120;-72
2022/12/01 03:43:06;;;;;;;75.30;20.15;;;;;;;1.40;100.00;102139.53;6099173;28;20067;-72
2022/12/01 03:46:24;;;;;;;86.93;24.30;;;;;;;1.48;100.00;102175.84;6100924;28;20039;-72
2022/12/01 03:49:22;;;;;;;74.18;21.55;;;;;;;1.46;100.00;102175.06;6099521;28;20499;-71
2022/12/01 03:52:38;;;;;;;75.80;20.27;;;;;;;1.44;100.00;102175.09;6099967;28;20029;-72
2022/12/01 03:55:39;;;;;;;78.78;21.90;;;;;;;1.40;100.00;102177.88;6100384;28;20025;-72
2022/12/01 03:58:38;;;;;;;95.40;25.10;;;;;;;1.49;100.00;102174.97;6099898;28;20040;-71
2022/12/01 04:01:34;;;;;;;75.93;21.17;;;;;;;1.38;100.00;102169.25;6099356;28;20065;-73
2022/12/01 04:04:29;;;;;;;88.90;22.13;;;;;;;1.40;100.00;102170.91;6099214;28;20041;-71
2022/12/01 04:07:24;;;;;;;85.00;21.43;;;;;;;1.55;100.00;102180.81;6101428;28;20107;-71
2022/12/01 04:10:19;;;;;;;78.47;21.83;;;;;;;1.50;100.00;102168.81;6096261;28;20374;-71
2022/12/01 04:13:21;;;;;;;76.50;19.33;;;;;;;1.41;100.00;102163.91;6099948;28;20466;-71
2022/12/01 04:16:17;;;;;;;73.40;20.52;;;;;;;1.43;100.00;102169.94;6099522;28;20330;-71
2022/12/01 04:19:12;;;;;;;73.37;18.40;;;;;;;1.48;100.00;102181.09;6100583;28;20037;-71
2022/12/01 04:22:07;;;;;;;80.07;20.43;;;;;;;1.40;100.00;102162.19;6099157;28;20040;-72
2022/12/01 04:25:06;;;;;;;80.90;20.27;;;;;;;1.45;100.00;102174.19;6100437;28;20268;-71
2022/12/01 04:28:01;;;;;;;79.70;22.38;;;;;;;1.30;100.00;102172.13;6099679;28;20035;-72
2022/12/01 04:30:57;;;;;;;74.53;19.90;;;;;;;1.30;100.00;102182.56;6099693;28;20041;-71
2022/12/01 04:33:56;;;;;;;84.43;20.35;;;;;;;1.35;100.00;102177.19;6100201;28;20040;-70
2022/12/01 04:36:51;;;;;;;85.60;21.83;;;;;;;1.27;100.00;102173.97;6099823;28;20078;-72
2022/12/01 04:39:47;;;;;;;72.30;21.83;;;;;;;1.14;100.00;102169.13;6100027;28;20420;-71
2022/12/01 04:42:42;;;;;;;71.67;18.10;;;;;;;1.43;100.00;102177.78;6099306;28;20067;-72
2022/12/01 04:45:37;;;;;;;80.50;20.30;;;;;;;1.29;100.00;102182.59;6099616;28;20072;-71
2022/12/01 04:48:34;;;;;;;80.13;22.57;;;;;;;1.23;100.00;102196.72;6099914;28;20033;-70
2022/12/01 04:51:29;;;;;;;88.38;21.42;;;;;;;1.28;100.00;102188.75;6099746;28;20486;-71
2022/12/01 04:54:25;;;;;;;80.05;21.02;;;;;;;1.27;100.00;102192.25;6099064;28;20036;-72
2022/12/01 04:57:20;;;;;;;77.00;21.77;;;;;;;1.22;100.00;102183.72;6098900;28;20060;-71
2022/12/01 05:00:15;;;;;;;82.47;24.93;;;;;;;1.26;100.00;102185.31;6099346;28;20256;-71
2022/12/01 05:03:11;;;;;;;69.65;19.23;;;;;;;1.16;100.00;102172.56;6098530;28;20144;-71
2022/12/01 05:06:09;;;;;;;85.13;21.17;;;;;;;1.17;100.00;102179.50;6099262;28;20040;-72
2022/12/01 05:09:05;;;;;;;72.47;18.30;;;;;;;1.14;100.00;102187.41;6098681;28;20333;-72
2022/12/01 05:12:00;;;;;;;75.15;20.23;;;;;;;1.18;100.00;102183.81;6098504;28;20040;-70
2022/12/01 05:14:56;;;;;;;77.13;20.57;;;;;;;1.20;100.00;102205.50;6099064;28;20029;-73
2022/12/01 05:17:51;;;;;;;55.87;17.70;;;;;;;1.14;100.00;102187.41;6098596;28;20568;-71
2022/12/01 05:20:55;;;;;;;58.10;17.73;;;;;;;1.18;100.00;102209.09;6098606;28;20037;-71
2022/12/01 05:23:51;;;;;;;55.45;15.35;;;;;;;1.11;100.00;102203.19;6098511;28;20268;-72
2022/12/01 05:26:46;;;;;;;62.80;15.90;;;;;;;1.07;100.00;102190.28;6098616;28;20044;-72
2022/12/01 05:29:42;;;;;;;79.55;21.10;;;;;;;1.12;100.00;102209.28;6098803;28;20057;-72
2022/12/01 05:32:37;;;;;;;66.53;19.37;;;;;;;1.09;100.00;102204.16;6098853;28;20401;-73
2022/12/01 05:35:33;;;;;;;80.20;19.73;;;;;;;1.13;100.00;102211.00;6098261;28;20048;-72
2022/12/01 05:38:28;;;;;;;71.93;19.25;;;;;;;1.03;100.00;102197.34;6098307;28;20042;-73
2022/12/01 05:41:23;;;;;;;80.10;20.50;;;;;;;1.14;100.00;102212.72;6104251;28;20028;-72
2022/12/01 05:44:19;;;;;;;75.40;19.37;;;;;;;1.09;100.00;102199.78;6097047;28;20047;-72
2022/12/01 05:47:14;;;;;;;69.07;17.60;;;;;;;1.14;100.00;102221.38;6100628;28;20036;-72
2022/12/01 05:50:09;;;;;;;69.27;15.97;;;;;;;1.01;100.00;102217.44;6108332;28;20314;-71
2022/12/01 05:53:05;;;;;;;69.28;16.70;;;;;;;0.87;100.00;102209.19;6097781;28;20025;-73
2022/12/01 05:56:01;;;;;;;69.55;16.45;;;;;;;0.89;100.00;102223.06;6097860;28;20037;-72
2022/12/01 05:58:56;;;;;;;64.80;19.40;;;;;;;0.85;100.00;102207.53;6098143;28;20056;-73
2022/12/01 06:01:51;;;;;;;65.00;17.43;;;;;;;0.97;100.00;102220.22;6097310;28;20040;-71
2022/12/01 06:04:46;;;;;;;63.33;17.57;;;;;;;1.00;100.00;102236.66;6097807;28;20432;-72
2022/12/01 06:07:42;;;;;;;72.20;17.97;;;;;;;0.86;100.00;102223.16;6097704;28;20045;-71
2022/12/01 06:10:37;;;;;;;69.80;16.90;;;;;;;0.90;100.00;102229.97;6097175;28;20036;-72
2022/12/01 06:13:32;;;;;;;81.97;19.40;;;;;;;1.03;100.00;102236.53;6097053;28;20081;-72
2022/12/01 06:16:28;;;;;;;70.97;21.47;;;;;;;0.94;100.00;102226.41;6097371;28;20441;-71
2022/12/01 06:19:23;;;;;;;81.67;20.33;;;;;;;0.87;100.00;102243.13;6097325;28;20271;-70
2022/12/01 06:22:18;;;;;;;69.20;17.93;;;;;;;0.86;100.00;102231.00;6097278;28;20075;-72
2022/12/01 06:25:14;;;;;;;66.10;16.17;;;;;;;0.98;100.00;102241.03;6097601;28;20275;-72
2022/12/01 06:28:09;;;;;;;69.67;18.67;;;;;;;0.72;100.00;102240.13;6097827;28;20028;-71
2022/12/01 06:31:04;;;;;;;83.33;19.60;;;;;;;0.82;100.00;102247.66;6097474;28;20647;-72
2022/12/01 06:34:00;;;;;;;75.72;17.73;;;;;;;0.80;100.00;102262.50;6097680;28;20032;-73
2022/12/01 06:36:55;;;;;;;76.40;18.97;;;;;;;0.73;100.00;102234.88;6097648;28;20090;-72
2022/12/01 06:39:51;;;;;;;82.93;19.30;;;;;;;0.71;100.00;102239.28;6096231;28;20060;-72
2022/12/01 06:42:46;;;;;;;67.65;18.52;;;;;;;0.78;100.00;102246.03;6096650;28;20286;-72
2022/12/01 06:45:41;;;;;;;60.03;16.50;;;;;;;0.86;100.00;102259.72;6096947;28;20119;-72
2022/12/01 06:48:37;;;;;;;51.37;15.97;;;;;;;0.85;100.00;102263.22;6096916;28;20134;-71
2022/12/01 06:51:33;;;;;;;63.23;16.17;;;;;;;0.89;100.00;102264.00;6097139;28;20354;-71
2022/12/01 06:54:28;;;;;;;73.68;20.08;;;;;;;0.72;100.00;102248.81;6096458;28;20025;-72
2022/12/01 06:57:23;;;;;;;72.73;19.23;;;;;;;0.77;100.00;102259.97;6096768;28;20043;-70
2022/12/01 07:00:19;;;;;;;74.53;17.20;;;;;;;0.87;100.00;102256.19;6091450;28;20547;-71
2022/12/01 07:03:14;;;;;;;73.30;17.27;;;;;;;0.80;100.00;102265.13;6093942;28;20064;-72
2022/12/01 07:06:09;;;;;;;74.63;17.70;;;;;;;0.76;100.00;102263.47;6097146;28;20032;-71
2022/12/01 07:09:05;;;;;;;74.10;19.10;;;;;;;0.87;100.00;102271.84;6096345;28;20113;-72
2022/12/01 07:12:00;;;;;;;70.70;18.87;;;;;;;0.85;100.00;102276.28;6096414;28;20025;-72
2022/12/01 07:14:56;;;;;;;77.07;18.50;;;;;;;0.79;100.00;102268.63;6096828;28;20316;-71
2022/12/01 07:17:52;;;;;;;81.10;19.55;;;;;;;0.94;100.00;102280.38;6096781;28;20106;-72
2022/12/01 07:20:47;;;;;;;82.20;17.00;;;;;;;0.85;100.00;102272.81;6097065;28;20025;-72
2022/12/01 07:23:42;;;;;;;73.73;17.40;;;;;;;0.85;100.00;102283.25;6096111;28;20056;-72
2022/12/01 07:26:39;;;;;;;73.47;19.40;;;;;;;0.69;100.00;102272.41;6096679;28;20033;-73
2022/12/01 07:29:34;;;;;;;71.55;17.60;;;;;;;0.86;100.00;102280.59;6096611;28;20032;-72
2022/12/01 07:32:29;;;;;;;60.92;16.33;;;;;;;0.82;100.00;102278.09;6097557;28;20485;-73
2022/12/01 07:35:25;;;;;;;63.90;15.27;;;;;;;0.63;100.00;102259.53;6096634;28;20120;-72
2022/12/01 07:38:20;;;;;;;76.32;18.05;;;;;;;0.76;100.00;102284.38;6096221;28;20032;-73
2022/12/01 07:41:20;;;;;;;62.53;18.03;;;;;;;0.66;100.00;102272.50;6096840;28;20397;-71
2022/12/01 07:44:16;;;;;;;58.80;14.80;;;;;;;0.68;100.00;102277.69;6095648;28;20271;-71
2022/12/01 07:47:11;;;;;;;64.87;16.50;;;;;;;0.66;100.00;102289.91;6096602;28;20432;-74
2022/12/01 07:50:07;;;;;;;59.43;14.10;;;;;;;0.60;100.00;102285.72;6096671;28;20044;-71
2022/12/01 07:53:02;;;;;;;67.80;16.77;;;;;;;0.63;100.00;102283.03;6098190;28;20032;-73
2022/12/01 07:55:58;;;;;;;72.50;18.80;;;;;;;0.77;100.00;102291.31;6101056;28;20032;-73
2022/12/01 07:58:53;;;;;;;73.07;17.42;;;;;;;0.74;100.00;102277.47;6100803;28;20043;-70
2022/12/01 08:01:48;;;;;;;58.87;16.77;;;;;;;0.93;100.00;102287.34;6099924;28;20078;-72
2022/12/01 08:04:44;;;;;;;53.70;15.03;;;;;;;0.85;100.00;102291.06;6100479;28;20041;-71
2022/12/01 08:07:39;;;;;;;77.50;17.70;;;;;;;0.91;100.00;102296.97;6100566;28;20035;-72
2022/12/01 08:10:35;;;;;;;68.03;16.20;;;;;;;0.76;100.00;102281.75;6100607;28;20032;-71
2022/12/01 08:13:30;;;;;;;70.40;16.98;;;;;;;0.89;100.00;102290.09;6099705;28;20146;-72
2022/12/01 08:16:26;;;;;;;71.63;17.10;;;;;;;0.96;100.00;102308.16;6100155;28;20029;-73
2022/12/01 08:19:21;;;;;;;67.33;19.43;;;;;;;0.81;100.00;102298.16;6100312;28;20024;-72
2022/12/01 08:22:16;;;;;;;68.83;15.73;;;;;;;1.00;100.00;102308.91;6099331;28;20478;-71
2022/12/01 08:25:12;;;;;;;70.30;17.80;;;;;;;0.96;100.00;102302.06;6100503;28;20057;-72
2022/12/01 08:28:07;;;;;;;63.45;16.27;;;;;;;1.04;100.00;102308.75;6100264;28;20039;-71
2022/12/01 08:31:08;;;;;;;75.47;16.37;;;;;;;1.00;100.00;102301.94;6100151;28;20024;-72
2022/12/01 08:34:06;;;;;;;68.90;17.48;;;;;;;1.06;100.00;102320.00;6100137;28;20485;-72
2022/12/01 08:37:01;;;;;;;69.53;16.55;;;;;;;0.96;100.00;102302.91;6099795;28;20108;-72
2022/12/01 08:39:57;;;;;;;70.20;19.57;;;;;;;1.04;100.00;102318.34;6099782;28;20439;-72
2022/12/01 08:42:52;;;;;;;63.37;17.57;;;;;;;1.05;100.00;102326.16;6099243;28;20063;-73
2022/12/01 08:45:47;;;;;;;69.67;15.97;;;;;;;1.00;100.00;102307.16;6101044;28;20029;-72
2022/12/01 08:48:43;;;;;;;58.33;16.43;;;;;;;1.04;100.00;102305.28;6099655;28;20272;-72
2022/12/01 08:51:38;;;;;;;68.97;18.07;;;;;;;1.10;100.00;102329.47;6099478;28;20090;-71
2022/12/01 08:54:33;;;;;;;62.53;16.00;;;;;;;1.01;100.00;102306.25;6101918;28;20159;-73
2022/12/01 08:57:30;;;;;;;65.55;17.25;;;;;;;1.08;100.00;102322.59;6099639;28;20385;-73
2022/12/01 09:00:25;;;;;;;65.55;15.95;;;;;;;1.20;100.00;102322.22;6099509;28;20044;-72
2022/12/01 09:03:20;;;;;;;71.40;16.35;;;;;;;1.22;100.00;102317.81;6098282;28;20036;-74
2022/12/01 09:06:19;;;;;;;67.17;16.70;;;;;;;1.17;100.00;102317.94;6098899;28;20063;-73
2022/12/01 09:09:21;;;;;;;69.07;18.52;;;;;;;1.32;100.00;102326.22;6099393;28;20025;-72
2022/12/01 09:12:17;;;;;;;59.30;14.43;;;;;;;1.32;100.00;102328.81;6095571;28;20028;-71
2022/12/01 09:15:13;;;;;;;64.17;16.50;;;;;;;1.31;100.00;102324.50;6099124;28;20033;-74
2022/12/01 09:18:09;;;;;;;63.75;17.52;;;;;;;1.21;100.00;102337.00;6098475;28;20385;-72
2022/12/01 09:21:18;;;;;;;71.95;14.82;;;;;;;1.29;100.00;102334.13;6099015;28;20040;-72
2022/12/01 09:24:14;;;;;;;69.78;19.38;;;;;;;1.19;100.00;102339.66;6097695;28;20148;-71
2022/12/01 09:27:10;;;;;;;65.75;16.10;;;;;;;1.04;100.00;102316.59;6098345;28;20037;-72
2022/12/01 09:30:05;;;;;;;70.30;16.92;;;;;;;1.27;100.00;102341.19;6098751;28;20021;-72
2022/12/01 09:33:01;;;;;;;58.65;15.93;;;;;;;1.35;100.00;102337.44;6098918;28;20584;-72
2022/12/01 09:35:58;;;;;;;73.60;16.50;;;;;;;1.34;100.00;102340.06;6098301;28;20474;-73
2022/12/01 09:38:53;;;;;;;62.80;15.80;;;;;;;1.30;100.00;102325.41;6097009;28;20136;-73
2022/12/01 09:41:53;;;;;;;70.33;17.60;;;;;;;1.31;100.00;102330.56;6097740;28;20499;-72
2022/12/01 09:44:51;;;;;;;70.85;18.63;;;;;;;1.31;100.00;102329.72;6097527;28;20037;-73
2022/12/01 09:47:47;;;;;;;61.55;15.93;;;;;;;1.39;100.00;102335.56;6095646;28;20037;-72
2022/12/01 09:50:42;;;;;;;59.08;16.13;;;;;;;1.44;100.00;102333.69;6097145;28;20418;-72
2022/12/01 09:53:37;;;;;;;57.83;15.60;;;;;;;1.55;100.00;102334.19;6093861;28;20104;-73
2022/12/01 09:56:41;;;;;;;77.38;18.35;;;;;;;1.33;100.00;102312.25;6096283;28;20029;-73
2022/12/01 09:59:40;;;;;;;60.90;15.02;;;;;;;1.47;100.00;102316.13;6096895;28;20112;-73
2022/12/01 10:02:39;;;;;;;71.97;14.48;;;;;;;1.32;100.00;102298.31;6096431;28;20040;-72
2022/12/01 10:06:02;;;;;;;67.75;17.38;;;;;;;1.48;100.00;102311.75;6095015;28;20032;-72
2022/12/01 10:09:33;;;;;;;77.38;19.13;;;;;;;1.45;100.00;102301.41;6109925;28;20513;-71
2022/12/01 10:12:32;;;;;;;60.55;14.45;;;;;;;1.35;100.00;102289.53;6096091;28;20041;-73
2022/12/01 10:16:01;;;;;;;64.00;15.50;;;;;;;1.51;100.00;102306.44;6096070;28;20025;-72
2022/12/01 10:19:05;;;;;;;59.20;15.10;;;;;;;1.63;100.00;102306.88;6082610;28;20037;-71
2022/12/01 10:22:13;;;;;;;68.40;16.50;;;;;;;1.65;100.00;102301.63;6095279;28;20025;-71
2022/12/01 10:25:15;;;;;;;70.35;18.30;;;;;;;1.62;100.00;102306.94;6097482;28;20052;-73
2022/12/01 10:28:31;;;;;;;59.22;15.65;;;;;;;1.64;100.00;102307.75;6097618;28;20084;-72
2022/12/01 10:31:45;;;;;;;61.10;15.50;;;;;;;1.71;100.00;102309.28;6095951;28;20032;-71
2022/12/01 10:34:41;;;;;;;67.88;15.80;;;;;;;1.33;100.00;102286.13;6094437;28;20052;-72
2022/12/01 10:37:36;;;;;;;75.50;17.05;;;;;;;1.43;100.00;102303.22;6094586;28;20470;-73
2022/12/01 10:40:34;;;;;;;58.03;14.18;;;;;;;1.45;100.00;102289.19;6097413;28;20084;-71
2022/12/01 10:43:38;;;;;;;66.75;16.45;;;;;;;1.39;100.00;102302.44;6096279;28;20037;-73
2022/12/01 10:46:48;;;;;;;66.55;16.48;;;;;;;1.40;100.00;102292.84;6095408;28;20484;-72
2022/12/01 10:49:43;;;;;;;63.17;15.35;;;;;;;1.40;100.00;102278.03;6095114;28;20040;-71
2022/12/01 10:52:40;;;;;;;66.25;16.33;;;;;;;1.61;100.00;102287.78;6094984;28;20393;-72
2022/12/01 10:55:37;;;;;;;65.72;17.23;;;;;;;1.52;100.00;102293.31;6097130;28;20029;-71
2022/12/01 10:58:38;;;;;;;66.50;18.52;;;;;;;1.52;100.00;102284.63;6095795;28;20390;-72
2022/12/01 11:01:34;;;;;;;59.85;15.30;;;;;;;1.61;100.00;102277.31;6097121;28;20032;-72
2022/12/01 11:04:51;;;;;;;63.65;15.98;;;;;;;1.60;100.00;102286.06;6095656;28;20386;-74
2022/12/01 11:07:46;;;;;;;66.05;17.05;;;;;;;1.68;100.00;102278.00;6090190;28;20473;-72
2022/12/01 11:10:47;;;;;;;60.83;15.80;;;;;;;1.84;100.00;102278.31;6094791;28;20044;-72
2022/12/01 11:13:42;;;;;;;61.50;16.60;;;;;;;1.71;100.00;102278.72;6094480;28;20117;-72
2022/12/01 11:16:43;;;;;;;65.53;16.87;;;;;;;1.61;100.00;102266.88;6094966;28;20417;-71
2022/12/01 11:19:38;;;;;;;64.88;16.80;;;;;;;1.75;100.00;102274.25;6090667;28;20057;-71
2022/12/01 11:22:33;;;;;;;66.27;14.37;;;;;;;1.82;100.00;102273.16;6095859;28;20040;-73
2022/12/01 11:25:29;;;;;;;67.10;15.27;;;;;;;1.86;100.00;102274.75;6095956;28;20497;-73
2022/12/01 11:28:24;;;;;;;66.93;17.53;;;;;;;1.70;100.00;102277.03;6100923;28;20267;-72
2022/12/01 11:31:21;;;;;;;69.28;15.95;;;;;;;1.75;100.00;102269.88;6101091;28;20146;-74
2022/12/01 11:34:28;;;;;;;69.47;15.55;;;;;;;1.64;100.00;102251.09;6100201;28;20029;-71
2022/12/01 11:37:28;;;;;;;55.83;15.50;;;;;;;1.93;100.00;102268.38;6099465;28;20119;-74
2022/12/01 11:40:26;;;;;;;54.88;14.93;;;;;;;1.90;100.00;102273.75;6100879;28;20452;-74
2022/12/01 11:43:34;;;;;;;55.70;14.00;;;;;;;1.64;100.00;102252.84;6099376;28;20044;-72
2022/12/01 11:46:35;;;;;;;50.45;14.25;;;;;;;1.85;100.00;102262.56;6099116;28;20039;-74
2022/12/01 11:49:30;;;;;;;60.92;15.60;;;;;;;1.89;100.00;102247.63;6099073;28;20434;-73
2022/12/01 11:52:32;;;;;;;46.40;13.30;;;;;;;1.84;100.00;102257.41;6099834;28;20031;-72
2022/12/01 11:55:29;;;;;;;63.70;15.50;;;;;;;1.86;100.00;102276.50;6099819;28;20033;-72
2022/12/01 11:58:24;;;;;;;59.38;14.80;;;;;;;1.74;100.00;102267.31;6099241;28;20032;-72
2022/12/01 12:01:25;;;;;;;61.43;17.27;;;;;;;1.60;100.00;102257.31;6098749;28;20036;-73
2022/12/01 12:04:21;;;;;;;;;;;;;;;1.76;100.00;102265.53;6100003;28;20028;-73
2022/12/01 12:07:42;;;;;;;50.47;13.38;;;;;;;1.90;100.00;102263.28;6097434;28;19963;-72
2022/12/01 12:10:50;;;;;;;50.47;13.02;;;;;;;1.90;100.00;102265.91;6099109;28;20098;-70
2022/12/01 12:14:13;;;;;;;58.90;17.55;;;;;;;1.84;100.00;102257.41;6098769;28;20393;-72
2022/12/01 12:17:23;;;;;;;43.95;14.18;;;;;;;1.94;100.00;102264.88;6098633;28;20429;-74
2022/12/01 12:20:22;;;;;;;64.15;16.33;;;;;;;1.94;100.00;102264.88;6099658;28;20039;-74
2022/12/01 12:23:35;;;;;;;53.92;13.50;;;;;;;1.92;100.00;102265.84;6098938;28;20029;-74
2022/12/01 12:26:48;;;;;;;46.05;13.40;;;;;;;1.81;100.00;102245.28;6094350;28;20048;-73
2022/12/01 12:30:41;;;;;;;61.97;14.38;;;;;;;1.77;100.00;102256.75;6098591;28;20082;-74
2022/12/01 12:33:49;;;;;;;61.42;15.80;;;;;;;1.86;100.00;102261.66;6090873;28;20454;-72
2022/12/01 12:37:15;;;;;;;53.80;14.35;;;;;;;1.91;100.00;102254.53;6098594;28;20166;-74
2022/12/01 12:40:35;;;;;;;53.00;13.90;;;;;;;1.87;100.00;102257.31;6086574;28;20111;-71
2022/12/01 12:43:46;;;;;;;53.67;12.57;;;;;;;1.86;100.00;102256.44;6085850;28;20048;-74
2022/12/01 12:47:19;;;;;;;59.33;14.95;;;;;;;1.91;nan;102251.91;6114188;28;20063;-72
2022/12/01 12:50:26;;;;;;;48.97;13.80;;;;;;;1.98;100.00;102250.81;6098849;28;20036;-73
2022/12/01 12:53:32;;;;;;;51.25;12.70;;;;;;;1.99;100.00;102231.56;6097610;28;20120;-72
2022/12/01 12:56:29;;;;;;;49.50;13.30;;;;;;;1.94;100.00;102238.72;6095142;28;20020;-73
2022/12/01 12:59:45;;;;;;;45.17;12.15;;;;;;;2.14;100.00;102253.72;6097159;28;20060;-74
2022/12/01 13:03:04;;;;;;;48.00;14.05;;;;;;;2.09;100.00;102253.03;6098024;28;20438;-73
2022/12/01 13:06:10;;;;;;;55.25;16.60;;;;;;;1.80;100.00;102246.19;6097427;28;20252;-72
2022/12/01 13:09:14;;;;;;;61.67;15.95;;;;;;;1.63;100.00;102251.97;6095363;28;20029;-73
2022/12/01 13:12:25;;;;;;;56.63;15.07;;;;;;;1.62;100.00;102241.59;6098284;28;20128;-73
2022/12/01 13:15:21;;;;;;;52.78;14.57;;;;;;;1.61;100.00;102239.88;6095412;28;20512;-75
2022/12/01 13:18:22;;;;;;;64.60;16.50;;;;;;;1.67;100.00;102252.75;6097399;28;20041;-74
2022/12/01 13:21:19;;;;;;;60.17;14.13;;;;;;;1.65;100.00;102246.72;6095864;28;20485;-74
2022/12/01 13:24:17;;;;;;;72.82;17.98;;;;;;;1.60;100.00;102243.41;6092214;28;20075;-72
2022/12/01 13:27:17;;;;;;;56.60;14.70;;;;;;;1.57;100.00;102222.59;6098779;28;20025;-72
2022/12/01 13:30:23;;;;;;;66.85;16.73;;;;;;;1.48;100.00;102223.75;6096445;28;20032;-74
2022/12/01 13:33:21;;;;;;;60.42;14.73;;;;;;;1.52;100.00;102219.28;6097683;28;20025;-74
2022/12/01 13:36:16;;;;;;;61.65;15.45;;;;;;;1.58;100.00;102229.50;6097180;28;20409;-73
2022/12/01 13:39:34;;;;;;;56.78;15.20;;;;;;;1.62;100.00;102241.59;6097319;28;20147;-75